createdAt,value
2022-10-30T00:00:02.492Z,12.00
2022-10-30T00:03:05.994Z,11.77
2022-10-30T00:06:09.752Z,10.88
2022-10-30T00:09:14.396Z,14.57
2022-10-30T00:12:17.371Z,13.60
2022-10-30T00:15:20.534Z,12.32
2022-10-30T00:18:23.557Z,14.68
2022-10-30T00:21:26.851Z,12.88
2022-10-30T00:24:31.431Z,8.60
2022-10-30T00:27:34.481Z,10.32
2022-10-30T00:30:37.957Z,10.90
2022-10-30T00:33:41.022Z,10.77
2022-10-30T00:36:43.980Z,12.68
2022-10-30T00:39:48.449Z,13.23
2022-10-30T00:42:51.963Z,12.23
2022-10-30T00:45:55.911Z,12.25
2022-10-30T00:49:05.051Z,11.15
2022-10-30T00:52:11.299Z,13.82
2022-10-30T00:55:21.940Z,12.98
2022-10-30T00:58:30.590Z,15.55
2022-10-30T01:01:38.183Z,16.33
2022-10-30T01:04:45.161Z,15.82
2022-10-30T01:07:48.283Z,14.68
2022-10-30T01:10:53.183Z,15.98
2022-10-30T01:14:01.568Z,12.98
2022-10-30T01:17:30.592Z,13.27
2022-10-30T01:21:02.337Z,13.70
2022-10-30T01:24:29.328Z,13.35
2022-10-30T01:27:43.026Z,19.30
2022-10-30T01:31:05.415Z,13.23
2022-10-30T01:34:20.584Z,15.35
2022-10-30T01:37:35.476Z,15.75
2022-10-30T01:40:38.686Z,13.00
2022-10-30T01:43:46.570Z,13.40
2022-10-30T01:47:14.883Z,9.70
2022-10-30T01:50:33.584Z,11.50
2022-10-30T01:53:52.698Z,10.25
2022-10-30T01:57:08.914Z,13.27
2022-10-30T02:00:17.015Z,11.00
2022-10-30T02:03:21.866Z,9.68
2022-10-30T02:06:25.147Z,7.88
2022-10-30T02:09:28.274Z,11.40
2022-10-30T02:12:32.258Z,8.05
2022-10-30T02:15:38.581Z,8.18
2022-10-30T02:18:42.008Z,16.52
2022-10-30T02:21:46.475Z,9.48
2022-10-30T02:24:49.557Z,9.13
2022-10-30T02:27:53.087Z,10.48
2022-10-30T02:30:56.583Z,12.65
2022-10-30T02:33:59.641Z,11.15
2022-10-30T02:37:04.297Z,8.82
2022-10-30T02:40:09.353Z,9.85
2022-10-30T02:43:12.706Z,10.45
2022-10-30T02:46:15.710Z,9.63
2022-10-30T02:49:18.734Z,10.07
2022-10-30T02:52:23.091Z,11.93
2022-10-30T02:55:26.318Z,11.82
2022-10-30T02:58:29.312Z,9.23
2022-10-30T03:01:32.433Z,9.32
2022-10-30T03:04:35.635Z,9.30
2022-10-30T03:07:39.850Z,9.70
2022-10-30T03:10:42.889Z,9.45
2022-10-30T03:13:48.128Z,9.57
2022-10-30T03:16:52.475Z,11.48
2022-10-30T03:19:55.553Z,9.20
2022-10-30T03:23:00.001Z,7.95
2022-10-30T03:26:03.358Z,8.73
2022-10-30T03:29:06.564Z,11.90
2022-10-30T03:32:11.671Z,8.77
2022-10-30T03:35:14.765Z,10.48
2022-10-30T03:38:19.451Z,8.02
2022-10-30T03:41:22.443Z,8.73
2022-10-30T03:44:25.441Z,9.93
2022-10-30T03:47:28.410Z,9.93
2022-10-30T03:50:31.826Z,8.25
2022-10-30T03:53:36.252Z,6.72
2022-10-30T03:56:39.446Z,6.57
2022-10-30T03:59:42.546Z,8.00
2022-10-30T04:02:50.540Z,9.02
2022-10-30T04:05:54.682Z,7.53
2022-10-30T04:12:01.880Z,5.32
2022-10-30T04:15:06.791Z,7.88
2022-10-30T04:18:12.719Z,7.93
2022-10-30T04:21:15.707Z,6.28
2022-10-30T04:24:20.490Z,8.27
2022-10-30T04:27:23.484Z,8.07
2022-10-30T04:30:27.554Z,6.85
2022-10-30T04:33:30.636Z,8.52
2022-10-30T04:36:34.049Z,7.05
2022-10-30T04:39:42.288Z,7.43
2022-10-30T04:42:48.725Z,6.13
2022-10-30T04:45:51.759Z,6.03
2022-10-30T04:48:54.829Z,8.68
2022-10-30T04:51:57.809Z,5.75
2022-10-30T04:55:02.171Z,5.07
2022-10-30T04:58:07.893Z,6.47
2022-10-30T05:01:11.057Z,6.35
2022-10-30T05:04:14.070Z,8.73
2022-10-30T05:07:18.387Z,8.20
2022-10-30T05:10:22.837Z,5.78
2022-10-30T05:13:26.089Z,5.93
2022-10-30T05:16:29.247Z,7.17
2022-10-30T05:19:32.345Z,6.93
2022-10-30T05:22:35.379Z,4.90
2022-10-30T05:25:39.751Z,5.50
2022-10-30T05:28:42.709Z,4.55
2022-10-30T05:31:45.917Z,4.88
2022-10-30T05:34:48.895Z,4.28
2022-10-30T05:37:52.111Z,4.00
2022-10-30T05:40:56.530Z,5.20
2022-10-30T05:43:59.688Z,4.10
2022-10-30T05:47:02.688Z,4.43
2022-10-30T05:50:07.098Z,4.25
2022-10-30T05:53:11.077Z,4.57
2022-10-30T05:56:15.517Z,2.53
2022-10-30T05:59:19.040Z,3.60
2022-10-30T06:02:22.469Z,3.97
2022-10-30T06:05:25.483Z,2.25
2022-10-30T06:08:28.432Z,2.97
2022-10-30T06:11:32.815Z,4.10
2022-10-30T06:14:35.948Z,2.13
2022-10-30T06:17:38.861Z,1.33
2022-10-30T06:20:41.822Z,1.60
2022-10-30T06:23:45.122Z,1.52
2022-10-30T06:26:50.857Z,3.57
2022-10-30T06:29:54.859Z,3.70
2022-10-30T06:32:59.374Z,1.83
2022-10-30T06:36:02.634Z,1.60
2022-10-30T06:39:05.615Z,1.92
2022-10-30T06:42:10.562Z,1.30
2022-10-30T06:45:15.078Z,1.80
2022-10-30T06:48:18.794Z,1.90
2022-10-30T06:51:22.259Z,1.60
2022-10-30T06:54:25.365Z,3.63
2022-10-30T06:57:30.064Z,2.97
2022-10-30T07:00:33.184Z,2.03
2022-10-30T07:03:36.738Z,1.87
2022-10-30T07:06:39.733Z,2.53
2022-10-30T07:09:42.871Z,2.13
2022-10-30T07:12:55.308Z,1.00
2022-10-30T07:16:00.295Z,1.77
2022-10-30T07:19:04.578Z,1.95
2022-10-30T07:22:08.219Z,3.30
2022-10-30T07:25:11.341Z,1.70
2022-10-30T07:28:15.827Z,2.08
2022-10-30T07:31:28.920Z,2.70
2022-10-30T07:34:41.865Z,2.55
2022-10-30T07:37:44.803Z,2.22
2022-10-30T07:40:54.217Z,2.33
2022-10-30T07:43:58.543Z,1.90
2022-10-30T07:47:01.508Z,1.60
2022-10-30T07:50:04.717Z,3.40
2022-10-30T07:53:07.876Z,1.70
2022-10-30T07:56:10.944Z,2.17
2022-10-30T07:59:15.772Z,2.47
2022-10-30T08:02:18.835Z,2.22
2022-10-30T08:05:27.012Z,3.65
2022-10-30T08:08:32.459Z,1.35
2022-10-30T08:11:35.528Z,1.58
2022-10-30T08:14:39.814Z,2.13
2022-10-30T08:17:44.422Z,1.63
2022-10-30T08:20:51.351Z,1.58
2022-10-30T08:23:54.380Z,1.15
2022-10-30T08:26:57.460Z,1.92
2022-10-30T08:30:01.773Z,2.42
2022-10-30T08:33:07.569Z,1.35
2022-10-30T08:36:11.091Z,2.80
2022-10-30T08:39:14.050Z,1.92
2022-10-30T08:42:17.037Z,0.98
2022-10-30T08:45:26.526Z,1.13
2022-10-30T08:48:33.680Z,1.88
2022-10-30T08:51:37.289Z,2.50
2022-10-30T08:54:40.332Z,1.55
2022-10-30T08:57:43.438Z,1.55
2022-10-30T09:00:47.768Z,1.38
2022-10-30T09:03:50.748Z,1.10
2022-10-30T09:06:53.674Z,2.17
2022-10-30T09:09:56.783Z,2.75
2022-10-30T09:13:02.505Z,1.30
2022-10-30T09:16:07.928Z,1.25
2022-10-30T09:19:16.144Z,3.38
2022-10-30T09:22:21.595Z,1.42
2022-10-30T09:25:24.715Z,2.35
2022-10-30T09:28:27.774Z,0.95
2022-10-30T09:31:32.120Z,1.90
2022-10-30T09:34:35.945Z,6.50
2022-10-30T09:37:40.423Z,2.75
2022-10-30T09:41:05.703Z,2.22
2022-10-30T09:44:27.079Z,3.03
2022-10-30T09:47:45.715Z,2.55
2022-10-30T09:50:59.586Z,3.88
2022-10-30T09:54:16.386Z,5.43
2022-10-30T09:57:35.128Z,1.55
2022-10-30T10:00:41.916Z,2.85
2022-10-30T10:04:03.012Z,1.85
2022-10-30T10:07:18.470Z,1.48
2022-10-30T10:10:29.313Z,5.50
2022-10-30T10:13:43.111Z,2.42
2022-10-30T10:16:58.693Z,1.55
2022-10-30T10:20:05.714Z,1.75
2022-10-30T10:23:19.387Z,3.55
2022-10-30T10:26:31.736Z,3.70
2022-10-30T10:29:47.894Z,2.00
2022-10-30T10:36:40.849Z,1.87
2022-10-30T10:40:14.861Z,1.80
2022-10-30T10:43:32.471Z,1.90
2022-10-30T10:46:53.027Z,2.15
2022-10-30T10:50:19.350Z,2.45
2022-10-30T10:53:31.668Z,2.40
2022-10-30T10:56:40.552Z,2.85
2022-10-30T10:59:47.361Z,2.72
2022-10-30T11:03:00.109Z,2.50
2022-10-30T11:06:19.060Z,3.78
2022-10-30T11:09:25.536Z,8.27
2022-10-30T11:12:35.381Z,3.13
2022-10-30T11:15:54.852Z,4.70
2022-10-30T11:19:02.290Z,2.33
2022-10-30T11:22:18.392Z,7.43
2022-10-30T11:25:30.336Z,3.92
2022-10-30T11:28:46.692Z,8.68
2022-10-30T11:32:05.181Z,4.28
2022-10-30T11:35:15.226Z,5.15
2022-10-30T11:38:21.853Z,5.55
2022-10-30T11:41:27.436Z,5.80
2022-10-30T11:44:37.543Z,4.85
2022-10-30T11:47:41.401Z,7.20
2022-10-30T11:50:50.126Z,10.70
2022-10-30T11:53:53.320Z,5.53
2022-10-30T11:56:59.871Z,5.72
2022-10-30T12:00:07.952Z,6.07
2022-10-30T12:03:30.519Z,6.45
2022-10-30T12:06:33.459Z,9.98
2022-10-30T12:09:44.799Z,8.82
2022-10-30T12:12:52.592Z,5.88
2022-10-30T12:16:13.855Z,10.77
2022-10-30T12:19:19.298Z,11.85
2022-10-30T12:22:29.562Z,7.22
2022-10-30T12:25:33.517Z,7.30
2022-10-30T12:28:39.455Z,8.57
2022-10-30T12:31:50.078Z,7.45
2022-10-30T12:35:01.420Z,7.72
2022-10-30T12:38:11.826Z,15.55
2022-10-30T12:41:24.654Z,10.00
2022-10-30T12:44:34.786Z,8.75
2022-10-30T12:47:46.609Z,10.65
2022-10-30T12:51:05.790Z,12.43
2022-10-30T12:54:25.497Z,15.27
2022-10-30T12:57:34.524Z,14.70
2022-10-30T13:00:51.290Z,13.05
2022-10-30T13:04:07.706Z,12.43
2022-10-30T13:07:23.305Z,10.82
2022-10-30T13:10:33.585Z,13.95
2022-10-30T13:13:40.356Z,20.35
2022-10-30T13:16:44.740Z,12.45
2022-10-30T13:19:48.956Z,12.55
2022-10-30T13:26:14.491Z,15.52
2022-10-30T13:29:28.870Z,17.13
2022-10-30T13:35:56.021Z,13.45
2022-10-30T13:39:10.012Z,19.88
2022-10-30T13:42:39.793Z,21.92
2022-10-30T13:46:26.896Z,19.88
2022-10-30T13:49:58.740Z,19.85
2022-10-30T13:53:07.285Z,14.57
2022-10-30T13:56:18.469Z,15.38
2022-10-30T13:59:53.875Z,16.38
2022-10-30T14:03:19.782Z,15.13
2022-10-30T14:06:40.982Z,25.40
2022-10-30T14:10:00.376Z,17.13
2022-10-30T14:13:18.481Z,17.33
2022-10-30T14:16:42.830Z,22.70
2022-10-30T14:20:26.831Z,21.23
2022-10-30T14:23:36.734Z,16.05
2022-10-30T14:26:47.248Z,19.98
2022-10-30T14:29:54.298Z,20.63
2022-10-30T14:32:57.464Z,21.17
2022-10-30T14:36:23.034Z,19.40
2022-10-30T14:39:31.139Z,17.50
2022-10-30T14:42:47.665Z,20.65
2022-10-30T14:45:57.238Z,21.83
2022-10-30T14:49:28.656Z,21.73
2022-10-30T14:52:47.933Z,19.80
2022-10-30T14:56:06.457Z,18.48
2022-10-30T14:59:35.803Z,18.17
2022-10-30T15:02:50.827Z,20.75
2022-10-30T15:05:58.659Z,32.03
2022-10-30T15:09:23.894Z,20.63
2022-10-30T15:13:01.382Z,23.20
2022-10-30T15:16:09.413Z,26.17
2022-10-30T15:19:16.469Z,25.70
2022-10-30T15:22:22.993Z,24.10
2022-10-30T15:25:34.119Z,20.95
2022-10-30T15:28:41.268Z,21.95
2022-10-30T15:31:44.354Z,21.10
2022-10-30T15:34:56.318Z,25.48
2022-10-30T15:38:05.935Z,25.05
2022-10-30T15:41:10.880Z,22.85
2022-10-30T15:44:18.577Z,21.05
2022-10-30T15:47:21.873Z,27.30
2022-10-30T15:50:25.081Z,25.53
2022-10-30T15:53:41.506Z,25.50
2022-10-30T15:57:26.980Z,32.20
2022-10-30T16:00:24.852Z,23.65
2022-10-30T16:03:29.271Z,26.08
2022-10-30T16:06:33.320Z,27.77
2022-10-30T16:09:36.262Z,22.85
2022-10-30T16:12:39.358Z,23.90
2022-10-30T16:15:47.265Z,23.42
2022-10-30T16:18:51.583Z,22.70
2022-10-30T16:21:55.309Z,27.67
2022-10-30T16:24:59.230Z,27.65
2022-10-30T16:28:02.665Z,24.98
2022-10-30T16:31:14.321Z,29.08
2022-10-30T16:34:26.900Z,28.92
2022-10-30T16:37:37.256Z,31.95
2022-10-30T16:40:40.788Z,30.00
2022-10-30T16:44:09.176Z,31.40
2022-10-30T16:47:26.677Z,28.42
2022-10-30T16:50:35.016Z,35.70
2022-10-30T16:53:38.368Z,30.60
2022-10-30T16:56:47.387Z,34.77
2022-10-30T16:59:52.104Z,33.13
2022-10-30T17:02:59.853Z,34.95
2022-10-30T17:06:06.571Z,39.50
2022-10-30T17:09:19.583Z,33.03
2022-10-30T17:12:25.060Z,34.55
2022-10-30T17:15:28.120Z,41.15
2022-10-30T17:18:33.140Z,44.00
2022-10-30T17:21:41.842Z,33.97
2022-10-30T17:24:47.434Z,83.85
2022-10-30T17:27:51.774Z,68.15
2022-10-30T17:30:55.494Z,137.15
2022-10-30T17:34:15.803Z,201.10
2022-10-30T17:37:18.766Z,205.35
2022-10-30T17:40:21.964Z,127.53
2022-10-30T17:43:29.368Z,133.30
2022-10-30T17:46:32.513Z,113.07
2022-10-30T17:49:36.839Z,152.60
2022-10-30T17:52:39.904Z,177.10
2022-10-30T17:55:46.847Z,93.00
2022-10-30T17:58:50.067Z,134.15
2022-10-30T18:01:53.118Z,102.50
2022-10-30T18:04:57.738Z,115.68
2022-10-30T18:08:00.742Z,168.57
2022-10-30T18:11:03.725Z,113.50
2022-10-30T18:14:07.001Z,57.47
2022-10-30T18:17:10.977Z,70.15
2022-10-30T18:20:15.446Z,77.38
2022-10-30T18:26:46.301Z,111.57
2022-10-30T18:29:49.465Z,47.65
2022-10-30T18:32:52.829Z,60.50
2022-10-30T18:35:59.133Z,87.33
2022-10-30T18:39:02.079Z,58.65
2022-10-30T18:42:05.595Z,48.50
2022-10-30T18:45:21.334Z,62.83
2022-10-30T18:48:24.343Z,38.40
2022-10-30T18:51:30.190Z,49.70
2022-10-30T18:54:33.094Z,44.75
2022-10-30T18:57:35.989Z,38.03
2022-10-30T19:01:09.877Z,57.65
2022-10-30T19:04:04.645Z,46.65
2022-10-30T19:07:09.918Z,48.08
2022-10-30T19:10:12.998Z,56.15
2022-10-30T19:13:19.820Z,55.83
2022-10-30T19:16:25.123Z,54.42
2022-10-30T19:19:28.085Z,47.28
2022-10-30T19:22:32.523Z,50.90
2022-10-30T19:25:37.248Z,37.10
2022-10-30T19:28:41.009Z,58.40
2022-10-30T19:31:44.040Z,52.22
2022-10-30T19:34:47.074Z,40.47
2022-10-30T19:37:51.509Z,51.00
2022-10-30T19:40:54.920Z,39.15
2022-10-30T19:43:57.988Z,27.65
2022-10-30T19:47:00.958Z,59.90
2022-10-30T19:50:18.767Z,30.58
2022-10-30T19:53:23.181Z,29.63
2022-10-30T19:56:26.233Z,55.30
2022-10-30T19:59:29.298Z,48.80
2022-10-30T20:02:32.270Z,52.17
2022-10-30T20:05:38.479Z,39.03
2022-10-30T20:08:43.282Z,36.53
2022-10-30T20:11:47.218Z,46.45
2022-10-30T20:14:50.244Z,45.75
2022-10-30T20:17:53.232Z,41.20
2022-10-30T20:20:58.857Z,41.35
2022-10-30T20:24:03.198Z,52.47
2022-10-30T20:27:07.165Z,61.90
2022-10-30T20:30:17.049Z,44.85
2022-10-30T20:33:22.166Z,44.38
2022-10-30T20:36:25.235Z,52.40
2022-10-30T20:39:29.537Z,38.58
2022-10-30T20:42:36.994Z,44.88
2022-10-30T20:45:40.372Z,31.45
2022-10-30T20:48:43.428Z,42.70
2022-10-30T20:51:47.324Z,36.05
2022-10-30T20:54:51.678Z,28.60
2022-10-30T20:57:54.734Z,31.75
2022-10-30T21:00:59.568Z,33.90
2022-10-30T21:04:02.531Z,28.73
2022-10-30T21:07:05.556Z,33.20
2022-10-30T21:10:10.590Z,32.13
2022-10-30T21:13:13.702Z,32.50
2022-10-30T21:16:16.751Z,26.35
2022-10-30T21:19:19.686Z,28.17
2022-10-30T21:22:22.605Z,31.45
2022-10-30T21:25:27.243Z,31.23
2022-10-30T21:28:31.191Z,36.17
2022-10-30T21:31:34.481Z,26.90
2022-10-30T21:34:37.588Z,36.43
2022-10-30T21:37:40.740Z,34.63
2022-10-30T21:40:45.000Z,33.65
2022-10-30T21:43:52.100Z,36.63
2022-10-30T21:46:55.179Z,35.35
2022-10-30T21:49:58.370Z,42.67
2022-10-30T21:53:01.602Z,44.15
2022-10-30T21:56:08.739Z,34.87
2022-10-30T21:59:13.295Z,37.28
2022-10-30T22:02:16.508Z,33.00
2022-10-30T22:05:19.552Z,32.77
2022-10-30T22:08:22.569Z,37.75
2022-10-30T22:11:29.043Z,24.88
2022-10-30T22:14:31.998Z,27.88
2022-10-30T22:17:35.204Z,32.72
2022-10-30T22:20:39.008Z,29.60
2022-10-30T22:23:43.084Z,30.83
2022-10-30T22:29:50.291Z,27.83
2022-10-30T22:32:53.337Z,26.85
2022-10-30T22:35:56.757Z,30.33
2022-10-30T22:39:02.920Z,29.58
2022-10-30T22:42:07.385Z,25.50
2022-10-30T22:45:11.021Z,29.50
2022-10-30T22:48:14.034Z,30.77
2022-10-30T22:51:19.503Z,23.70
2022-10-30T22:54:22.558Z,25.30
2022-10-30T22:57:26.843Z,26.92
2022-10-30T23:00:30.880Z,26.83
2022-10-30T23:03:33.797Z,27.63
2022-10-30T23:06:38.474Z,29.20
2022-10-30T23:09:41.542Z,28.85
2022-10-30T23:12:45.839Z,26.10
2022-10-30T23:15:48.877Z,28.33
2022-10-30T23:18:54.615Z,28.00
2022-10-30T23:21:58.584Z,33.17
2022-10-30T23:25:01.650Z,28.60
2022-10-30T23:28:07.043Z,29.30
2022-10-30T23:31:10.852Z,27.63
2022-10-30T23:34:17.230Z,31.88
2022-10-30T23:37:20.273Z,27.17
2022-10-30T23:40:23.205Z,26.13
2022-10-30T23:43:27.549Z,24.20
2022-10-30T23:46:30.678Z,35.00
2022-10-30T23:49:34.327Z,32.65
2022-10-30T23:52:37.599Z,30.02
2022-10-30T23:55:40.763Z,32.67
2022-10-30T23:58:46.505Z,27.65
